sensor_id;sensor_type;location;lat;lon;timestamp;noise_LAeq;noise_LA_min;noise_LA_max;noise_LA01;noise_LA95
76767;Laerm;65707;52.362;6.588;2023-11-21T00:02:26;37.16;31.25;51.33;;
76767;Laerm;65707;52.362;6.588;2023-11-21T00:04:53;38.57;31.82;48.59;;
76767;Laerm;65707;52.362;6.588;2023-11-21T00:07:20;38.31;32.47;50.23;;
76767;Laerm;65707;52.362;6.588;2023-11-21T00:09:47;37.95;31.27;52.55;;
76767;Laerm;65707;52.362;6.588;2023-11-21T00:12:14;35.54;30.44;42.41;;
76767;Laerm;65707;52.362;6.588;2023-11-21T00:14:41;35.49;30.52;42.11;;
76767;Laerm;65707;52.362;6.588;2023-11-21T00:17:09;37.70;31.11;43.89;;
76767;Laerm;65707;52.362;6.588;2023-11-21T00:19:36;36.54;31.03;42.08;;
76767;Laerm;65707;52.362;6.588;2023-11-21T00:22:03;36.65;31.47;42.80;;
76767;Laerm;65707;52.362;6.588;2023-11-21T00:24:31;37.36;31.81;44.07;;
76767;Laerm;65707;52.362;6.588;2023-11-21T00:26:58;36.33;31.04;43.18;;
76767;Laerm;65707;52.362;6.588;2023-11-21T00:29:25;37.19;31.44;43.74;;
76767;Laerm;65707;52.362;6.588;2023-11-21T00:31:52;38.22;31.24;48.30;;
76767;Laerm;65707;52.362;6.588;2023-11-21T00:34:20;63.84;30.94;82.91;;
76767;Laerm;65707;52.362;6.588;2023-11-21T00:36:47;38.23;31.00;47.78;;
76767;Laerm;65707;52.362;6.588;2023-11-21T00:39:13;35.60;30.53;42.71;;
76767;Laerm;65707;52.362;6.588;2023-11-21T00:41:41;36.41;31.30;42.08;;
76767;Laerm;65707;52.362;6.588;2023-11-21T00:44:07;36.15;30.51;43.16;;
76767;Laerm;65707;52.362;6.588;2023-11-21T00:46:35;36.77;31.68;41.97;;
76767;Laerm;65707;52.362;6.588;2023-11-21T00:49:02;36.41;30.93;42.03;;
76767;Laerm;65707;52.362;6.588;2023-11-21T00:51:31;36.00;30.55;46.97;;
76767;Laerm;65707;52.362;6.588;2023-11-21T00:53:58;37.14;30.95;47.09;;
76767;Laerm;65707;52.362;6.588;2023-11-21T00:56:25;37.63;31.70;42.65;;
76767;Laerm;65707;52.362;6.588;2023-11-21T00:58:51;36.72;31.40;42.48;;
76767;Laerm;65707;52.362;6.588;2023-11-21T01:01:19;37.27;30.75;46.38;;
76767;Laerm;65707;52.362;6.588;2023-11-21T01:03:47;36.98;31.53;42.64;;
76767;Laerm;65707;52.362;6.588;2023-11-21T01:06:14;38.97;31.17;54.04;;
76767;Laerm;65707;52.362;6.588;2023-11-21T01:13:40;36.39;31.16;43.11;;
76767;Laerm;65707;52.362;6.588;2023-11-21T01:16:08;35.35;30.37;41.66;;
76767;Laerm;65707;52.362;6.588;2023-11-21T01:18:35;35.36;30.40;41.75;;
76767;Laerm;65707;52.362;6.588;2023-11-21T01:21:02;36.27;30.67;43.49;;
76767;Laerm;65707;52.362;6.588;2023-11-21T01:23:29;37.09;31.79;45.73;;
76767;Laerm;65707;52.362;6.588;2023-11-21T01:25:57;36.19;30.72;43.91;;
76767;Laerm;65707;52.362;6.588;2023-11-21T01:28:23;36.57;30.79;44.16;;
76767;Laerm;65707;52.362;6.588;2023-11-21T01:30:52;37.02;31.18;47.05;;
76767;Laerm;65707;52.362;6.588;2023-11-21T01:33:22;35.91;31.03;42.48;;
76767;Laerm;65707;52.362;6.588;2023-11-21T01:35:50;36.24;30.88;46.05;;
76767;Laerm;65707;52.362;6.588;2023-11-21T01:38:18;36.27;30.36;45.37;;
76767;Laerm;65707;52.362;6.588;2023-11-21T01:40:45;38.11;31.24;45.59;;
76767;Laerm;65707;52.362;6.588;2023-11-21T01:43:12;36.91;31.44;41.84;;
76767;Laerm;65707;52.362;6.588;2023-11-21T01:45:38;38.45;31.71;46.12;;
76767;Laerm;65707;52.362;6.588;2023-11-21T01:48:07;36.77;30.99;46.46;;
76767;Laerm;65707;52.362;6.588;2023-11-21T01:50:34;36.05;30.74;42.66;;
76767;Laerm;65707;52.362;6.588;2023-11-21T01:53:01;37.45;30.92;46.10;;
76767;Laerm;65707;52.362;6.588;2023-11-21T01:55:28;38.13;31.66;48.16;;
76767;Laerm;65707;52.362;6.588;2023-11-21T01:57:56;36.25;30.95;42.37;;
76767;Laerm;65707;52.362;6.588;2023-11-21T02:00:23;36.42;30.41;46.72;;
76767;Laerm;65707;52.362;6.588;2023-11-21T02:02:53;35.27;30.42;41.90;;
76767;Laerm;65707;52.362;6.588;2023-11-21T02:05:21;35.97;30.82;42.06;;
76767;Laerm;65707;52.362;6.588;2023-11-21T02:07:48;36.03;30.64;43.36;;
76767;Laerm;65707;52.362;6.588;2023-11-21T02:10:18;35.94;30.66;43.97;;
76767;Laerm;65707;52.362;6.588;2023-11-21T02:12:48;36.05;30.73;44.26;;
76767;Laerm;65707;52.362;6.588;2023-11-21T02:15:17;36.26;31.11;42.43;;
76767;Laerm;65707;52.362;6.588;2023-11-21T02:17:46;35.34;30.84;39.85;;
76767;Laerm;65707;52.362;6.588;2023-11-21T02:20:17;36.08;30.80;43.21;;
76767;Laerm;65707;52.362;6.588;2023-11-21T02:22:50;35.51;30.57;42.68;;
76767;Laerm;65707;52.362;6.588;2023-11-21T02:25:18;37.38;31.64;44.78;;
76767;Laerm;65707;52.362;6.588;2023-11-21T02:27:45;37.26;30.81;46.48;;
76767;Laerm;65707;52.362;6.588;2023-11-21T02:30:14;36.51;30.88;46.79;;
76767;Laerm;65707;52.362;6.588;2023-11-21T02:32:41;40.36;31.08;56.16;;
76767;Laerm;65707;52.362;6.588;2023-11-21T02:35:09;36.83;31.38;44.45;;
76767;Laerm;65707;52.362;6.588;2023-11-21T02:37:37;40.51;32.09;52.05;;
76767;Laerm;65707;52.362;6.588;2023-11-21T02:40:09;37.16;31.76;42.53;;
76767;Laerm;65707;52.362;6.588;2023-11-21T02:42:38;38.85;31.34;50.85;;
76767;Laerm;65707;52.362;6.588;2023-11-21T02:45:10;36.30;30.75;42.61;;
76767;Laerm;65707;52.362;6.588;2023-11-21T02:47:40;36.85;31.42;42.95;;
76767;Laerm;65707;52.362;6.588;2023-11-21T02:56:27;36.02;30.94;42.01;;
76767;Laerm;65707;52.362;6.588;2023-11-21T02:58:55;37.24;30.91;44.47;;
76767;Laerm;65707;52.362;6.588;2023-11-21T03:01:23;39.07;31.49;49.55;;
76767;Laerm;65707;52.362;6.588;2023-11-21T03:03:50;38.50;32.62;47.21;;
76767;Laerm;65707;52.362;6.588;2023-11-21T03:06:17;35.94;30.65;42.68;;
76767;Laerm;65707;52.362;6.588;2023-11-21T03:08:44;37.46;31.23;45.82;;
76767;Laerm;65707;52.362;6.588;2023-11-21T03:11:11;37.33;32.05;43.24;;
76767;Laerm;65707;52.362;6.588;2023-11-21T03:13:41;37.68;32.08;43.83;;
76767;Laerm;65707;52.362;6.588;2023-11-21T03:16:08;37.44;32.11;44.06;;
76767;Laerm;65707;52.362;6.588;2023-11-21T03:18:35;38.61;31.21;48.44;;
76767;Laerm;65707;52.362;6.588;2023-11-21T03:21:03;38.51;31.64;43.92;;
76767;Laerm;65707;52.362;6.588;2023-11-21T03:23:30;40.24;32.41;53.02;;
76767;Laerm;65707;52.362;6.588;2023-11-21T03:25:56;40.69;34.42;46.07;;
76767;Laerm;65707;52.362;6.588;2023-11-21T03:28:23;41.78;33.02;61.76;;
76767;Laerm;65707;52.362;6.588;2023-11-21T03:30:51;43.12;34.66;54.50;;
76767;Laerm;65707;52.362;6.588;2023-11-21T03:33:18;41.08;36.19;51.78;;
76767;Laerm;65707;52.362;6.588;2023-11-21T03:35:45;40.59;34.13;51.68;;
76767;Laerm;65707;52.362;6.588;2023-11-21T03:38:12;39.85;34.65;47.07;;
76767;Laerm;65707;52.362;6.588;2023-11-21T03:40:38;41.75;35.55;51.83;;
76767;Laerm;65707;52.362;6.588;2023-11-21T03:43:06;41.17;33.72;51.83;;
76767;Laerm;65707;52.362;6.588;2023-11-21T03:45:32;40.37;33.58;53.41;;
76767;Laerm;65707;52.362;6.588;2023-11-21T03:48:00;39.64;33.93;50.91;;
76767;Laerm;65707;52.362;6.588;2023-11-21T03:50:28;39.55;33.06;45.54;;
76767;Laerm;65707;52.362;6.588;2023-11-21T03:52:54;40.40;34.98;48.36;;
76767;Laerm;65707;52.362;6.588;2023-11-21T03:55:21;41.03;34.22;54.53;;
76767;Laerm;65707;52.362;6.588;2023-11-21T03:57:48;40.15;33.39;48.36;;
76767;Laerm;65707;52.362;6.588;2023-11-21T04:00:16;40.76;34.55;50.57;;
76767;Laerm;65707;52.362;6.588;2023-11-21T04:02:45;39.89;33.83;46.41;;
76767;Laerm;65707;52.362;6.588;2023-11-21T04:05:14;40.30;33.51;48.40;;
76767;Laerm;65707;52.362;6.588;2023-11-21T04:07:41;39.42;33.59;43.94;;
76767;Laerm;65707;52.362;6.588;2023-11-21T04:10:09;41.55;35.31;49.04;;
76767;Laerm;65707;52.362;6.588;2023-11-21T04:12:38;58.16;37.17;78.11;;
76767;Laerm;65707;52.362;6.588;2023-11-21T04:15:06;43.59;35.52;57.05;;
76767;Laerm;65707;52.362;6.588;2023-11-21T04:17:34;42.19;36.58;54.25;;
76767;Laerm;65707;52.362;6.588;2023-11-21T04:20:02;41.33;36.53;48.31;;
76767;Laerm;65707;52.362;6.588;2023-11-21T04:22:37;42.71;36.42;58.68;;
76767;Laerm;65707;52.362;6.588;2023-11-21T04:25:09;42.97;36.12;54.39;;
76767;Laerm;65707;52.362;6.588;2023-11-21T04:27:36;42.18;36.99;55.14;;
76767;Laerm;65707;52.362;6.588;2023-11-21T04:30:05;45.47;37.03;58.40;;
76767;Laerm;65707;52.362;6.588;2023-11-21T04:32:32;41.85;37.44;52.54;;
76767;Laerm;65707;52.362;6.588;2023-11-21T04:35:00;42.37;37.55;53.76;;
76767;Laerm;65707;52.362;6.588;2023-11-21T04:37:29;41.58;35.97;53.06;;
76767;Laerm;65707;52.362;6.588;2023-11-21T04:39:58;56.73;38.23;74.50;;
76767;Laerm;65707;52.362;6.588;2023-11-21T04:42:38;61.67;37.81;81.58;;
76767;Laerm;65707;52.362;6.588;2023-11-21T04:45:07;43.84;36.54;54.30;;
76767;Laerm;65707;52.362;6.588;2023-11-21T04:47:37;41.76;36.81;51.49;;
76767;Laerm;65707;52.362;6.588;2023-11-21T04:50:05;42.83;37.53;53.09;;
76767;Laerm;65707;52.362;6.588;2023-11-21T04:52:32;41.66;36.28;51.90;;
76767;Laerm;65707;52.362;6.588;2023-11-21T04:55:01;52.23;37.31;72.39;;
76767;Laerm;65707;52.362;6.588;2023-11-21T04:57:28;45.05;39.94;54.44;;
76767;Laerm;65707;52.362;6.588;2023-11-21T04:59:55;57.37;39.29;70.40;;
76767;Laerm;65707;52.362;6.588;2023-11-21T05:02:21;43.23;37.80;52.60;;
76767;Laerm;65707;52.362;6.588;2023-11-21T05:04:48;43.83;37.66;54.59;;
76767;Laerm;65707;52.362;6.588;2023-11-21T05:07:15;44.43;40.31;52.31;;
76767;Laerm;65707;52.362;6.588;2023-11-21T05:09:42;56.11;40.40;73.00;;
76767;Laerm;65707;52.362;6.588;2023-11-21T05:12:13;48.54;38.69;67.09;;
76767;Laerm;65707;52.362;6.588;2023-11-21T05:14:39;63.62;40.23;80.26;;
76767;Laerm;65707;52.362;6.588;2023-11-21T05:17:07;46.43;39.56;55.18;;
76767;Laerm;65707;52.362;6.588;2023-11-21T05:19:37;44.76;39.01;56.53;;
76767;Laerm;65707;52.362;6.588;2023-11-21T05:22:04;41.84;36.92;51.96;;
76767;Laerm;65707;52.362;6.588;2023-11-21T05:24:31;50.99;37.81;70.88;;
76767;Laerm;65707;52.362;6.588;2023-11-21T05:26:57;49.99;38.65;70.51;;
76767;Laerm;65707;52.362;6.588;2023-11-21T05:29:25;50.73;40.56;71.13;;
76767;Laerm;65707;52.362;6.588;2023-11-21T05:31:52;55.45;38.69;71.52;;
76767;Laerm;65707;52.362;6.588;2023-11-21T05:34:19;43.92;39.15;54.93;;
76767;Laerm;65707;52.362;6.588;2023-11-21T05:36:49;46.98;38.29;65.80;;
76767;Laerm;65707;52.362;6.588;2023-11-21T05:39:16;62.09;37.79;82.51;;
76767;Laerm;65707;52.362;6.588;2023-11-21T05:41:44;54.65;39.80;70.88;;
76767;Laerm;65707;52.362;6.588;2023-11-21T05:44:13;62.54;39.46;78.91;;
76767;Laerm;65707;52.362;6.588;2023-11-21T05:46:44;43.63;38.63;62.71;;
76767;Laerm;65707;52.362;6.588;2023-11-21T05:49:11;61.38;38.43;79.94;;
76767;Laerm;65707;52.362;6.588;2023-11-21T05:51:38;45.96;38.74;66.43;;
76767;Laerm;65707;52.362;6.588;2023-11-21T05:54:05;54.79;39.85;72.79;;
76767;Laerm;65707;52.362;6.588;2023-11-21T05:56:33;55.25;40.26;73.83;;
76767;Laerm;65707;52.362;6.588;2023-11-21T05:59:00;46.27;41.13;56.23;;
76767;Laerm;65707;52.362;6.588;2023-11-21T06:01:27;58.38;42.13;71.83;;
76767;Laerm;65707;52.362;6.588;2023-11-21T06:03:55;47.78;41.61;57.91;;
76767;Laerm;65707;52.362;6.588;2023-11-21T06:06:22;47.37;40.03;55.13;;
76767;Laerm;65707;52.362;6.588;2023-11-21T06:08:50;48.91;42.08;56.74;;
76767;Laerm;65707;52.362;6.588;2023-11-21T06:11:16;55.19;42.87;73.77;;
76767;Laerm;65707;52.362;6.588;2023-11-21T06:13:44;61.88;42.25;75.92;;
76767;Laerm;65707;52.362;6.588;2023-11-21T06:16:11;51.35;42.90;62.33;;
76767;Laerm;65707;52.362;6.588;2023-11-21T06:18:40;50.35;42.10;58.90;;
76767;Laerm;65707;52.362;6.588;2023-11-21T06:21:10;59.66;43.40;79.34;;
76767;Laerm;65707;52.362;6.588;2023-11-21T06:23:38;49.08;42.62;60.26;;
76767;Laerm;65707;52.362;6.588;2023-11-21T06:26:05;49.69;41.84;57.02;;
76767;Laerm;65707;52.362;6.588;2023-11-21T06:28:32;49.46;42.95;57.36;;
76767;Laerm;65707;52.362;6.588;2023-11-21T06:30:59;58.61;43.42;76.16;;
76767;Laerm;65707;52.362;6.588;2023-11-21T06:33:32;56.54;42.17;71.35;;
76767;Laerm;65707;52.362;6.588;2023-11-21T06:35:58;51.76;42.93;67.38;;
76767;Laerm;65707;52.362;6.588;2023-11-21T06:38:29;51.71;42.01;68.80;;
76767;Laerm;65707;52.362;6.588;2023-11-21T06:40:58;56.55;42.02;72.97;;
76767;Laerm;65707;52.362;6.588;2023-11-21T06:43:27;62.79;43.47;80.39;;
76767;Laerm;65707;52.362;6.588;2023-11-21T06:45:54;53.02;43.90;67.59;;
76767;Laerm;65707;52.362;6.588;2023-11-21T06:48:21;51.71;41.31;64.86;;
76767;Laerm;65707;52.362;6.588;2023-11-21T06:50:47;57.79;43.47;79.45;;
76767;Laerm;65707;52.362;6.588;2023-11-21T06:53:14;54.16;41.59;78.73;;
76767;Laerm;65707;52.362;6.588;2023-11-21T06:55:42;57.59;42.44;74.16;;
76767;Laerm;65707;52.362;6.588;2023-11-21T06:58:09;48.36;41.71;55.64;;
76767;Laerm;65707;52.362;6.588;2023-11-21T07:00:36;49.42;42.86;62.08;;
76767;Laerm;65707;52.362;6.588;2023-11-21T07:03:02;56.42;41.05;72.38;;
76767;Laerm;65707;52.362;6.588;2023-11-21T07:05:29;58.40;41.47;69.62;;
76767;Laerm;65707;52.362;6.588;2023-11-21T07:07:56;49.89;40.40;62.11;;
76767;Laerm;65707;52.362;6.588;2023-11-21T07:10:26;49.62;39.93;67.88;;
76767;Laerm;65707;52.362;6.588;2023-11-21T07:12:54;58.25;40.94;82.51;;
76767;Laerm;65707;52.362;6.588;2023-11-21T07:15:22;59.11;43.91;75.79;;
76767;Laerm;65707;52.362;6.588;2023-11-21T07:17:51;50.82;41.62;65.84;;
76767;Laerm;65707;52.362;6.588;2023-11-21T07:20:19;52.46;44.84;68.47;;
76767;Laerm;65707;52.362;6.588;2023-11-21T07:22:47;50.55;44.55;60.13;;
76767;Laerm;65707;52.362;6.588;2023-11-21T07:25:13;60.44;45.58;79.48;;
76767;Laerm;65707;52.362;6.588;2023-11-21T07:27:40;51.17;45.37;60.48;;
76767;Laerm;65707;52.362;6.588;2023-11-21T07:30:10;55.46;44.71;69.84;;
76767;Laerm;65707;52.362;6.588;2023-11-21T07:32:40;56.44;45.34;74.28;;
76767;Laerm;65707;52.362;6.588;2023-11-21T07:35:08;50.33;42.39;59.32;;
76767;Laerm;65707;52.362;6.588;2023-11-21T07:37:35;56.44;40.52;70.32;;
76767;Laerm;65707;52.362;6.588;2023-11-21T07:40:02;49.47;39.26;68.85;;
76767;Laerm;65707;52.362;6.588;2023-11-21T07:42:29;55.07;41.52;71.10;;
76767;Laerm;65707;52.362;6.588;2023-11-21T07:44:56;58.37;39.66;78.70;;
76767;Laerm;65707;52.362;6.588;2023-11-21T07:47:24;47.26;36.16;60.78;;
76767;Laerm;65707;52.362;6.588;2023-11-21T07:49:52;62.49;37.74;80.06;;
76767;Laerm;65707;52.362;6.588;2023-11-21T07:52:21;46.10;37.82;66.19;;
76767;Laerm;65707;52.362;6.588;2023-11-21T07:54:48;48.57;37.23;60.61;;
76767;Laerm;65707;52.362;6.588;2023-11-21T07:57:14;46.01;35.27;56.16;;
76767;Laerm;65707;52.362;6.588;2023-11-21T07:59:41;46.59;36.57;57.26;;
76767;Laerm;65707;52.362;6.588;2023-11-21T08:02:08;58.30;40.01;74.16;;
76767;Laerm;65707;52.362;6.588;2023-11-21T08:04:36;58.21;40.21;75.72;;
76767;Laerm;65707;52.362;6.588;2023-11-21T08:07:03;46.33;37.53;55.55;;
76767;Laerm;65707;52.362;6.588;2023-11-21T08:09:30;46.82;35.79;59.41;;
76767;Laerm;65707;52.362;6.588;2023-11-21T08:11:57;61.37;37.12;80.36;;
76767;Laerm;65707;52.362;6.588;2023-11-21T08:14:26;53.44;37.96;72.72;;
76767;Laerm;65707;52.362;6.588;2023-11-21T08:16:52;58.93;37.97;74.97;;
76767;Laerm;65707;52.362;6.588;2023-11-21T08:19:23;60.86;38.99;80.50;;
76767;Laerm;65707;52.362;6.588;2023-11-21T08:21:51;47.35;39.00;67.57;;
76767;Laerm;65707;52.362;6.588;2023-11-21T08:24:20;61.89;39.43;79.63;;
76767;Laerm;65707;52.362;6.588;2023-11-21T08:26:47;48.72;38.26;63.04;;
76767;Laerm;65707;52.362;6.588;2023-11-21T08:29:15;57.50;38.74;74.68;;
76767;Laerm;65707;52.362;6.588;2023-11-21T08:31:42;45.62;35.49;65.07;;
76767;Laerm;65707;52.362;6.588;2023-11-21T08:34:10;53.24;37.35;74.93;;
76767;Laerm;65707;52.362;6.588;2023-11-21T08:36:42;55.15;39.77;70.03;;
76767;Laerm;65707;52.362;6.588;2023-11-21T08:39:10;55.18;34.36;79.10;;
76767;Laerm;65707;52.362;6.588;2023-11-21T08:41:38;55.90;37.97;74.72;;
76767;Laerm;65707;52.362;6.588;2023-11-21T08:44:06;59.61;36.80;78.43;;
76767;Laerm;65707;52.362;6.588;2023-11-21T08:46:33;48.68;39.53;65.45;;
76767;Laerm;65707;52.362;6.588;2023-11-21T08:49:03;56.91;40.65;73.79;;
76767;Laerm;65707;52.362;6.588;2023-11-21T08:51:31;47.22;39.42;68.72;;
76767;Laerm;65707;52.362;6.588;2023-11-21T08:53:58;45.94;37.97;62.93;;
76767;Laerm;65707;52.362;6.588;2023-11-21T08:56:31;65.74;40.00;82.44;;
76767;Laerm;65707;52.362;6.588;2023-11-21T08:58:57;53.74;38.68;74.08;;
76767;Laerm;65707;52.362;6.588;2023-11-21T09:01:26;55.22;39.52;70.20;;
76767;Laerm;65707;52.362;6.588;2023-11-21T09:03:53;55.75;38.31;74.14;;
76767;Laerm;65707;52.362;6.588;2023-11-21T09:06:19;46.06;36.76;61.40;;
76767;Laerm;65707;52.362;6.588;2023-11-21T09:08:46;54.56;39.69;69.57;;
76767;Laerm;65707;52.362;6.588;2023-11-21T09:11:13;47.08;38.11;74.84;;
76767;Laerm;65707;52.362;6.588;2023-11-21T09:13:41;46.61;38.38;61.31;;
76767;Laerm;65707;52.362;6.588;2023-11-21T09:16:08;59.10;38.49;74.60;;
76767;Laerm;65707;52.362;6.588;2023-11-21T09:18:36;62.17;40.75;77.32;;
76767;Laerm;65707;52.362;6.588;2023-11-21T09:21:03;61.71;38.94;80.32;;
76767;Laerm;65707;52.362;6.588;2023-11-21T09:23:30;49.75;40.80;65.08;;
76767;Laerm;65707;52.362;6.588;2023-11-21T09:25:57;54.05;39.10;68.77;;
76767;Laerm;65707;52.362;6.588;2023-11-21T09:28:26;54.76;39.57;70.40;;
76767;Laerm;65707;52.362;6.588;2023-11-21T09:30:55;52.57;39.33;69.80;;
76767;Laerm;65707;52.362;6.588;2023-11-21T09:33:21;53.49;38.11;72.27;;
76767;Laerm;65707;52.362;6.588;2023-11-21T09:35:50;56.32;40.59;71.65;;
76767;Laerm;65707;52.362;6.588;2023-11-21T09:38:18;55.32;39.80;72.27;;
76767;Laerm;65707;52.362;6.588;2023-11-21T09:40:44;62.41;40.40;79.90;;
76767;Laerm;65707;52.362;6.588;2023-11-21T09:43:16;47.45;37.93;61.73;;
76767;Laerm;65707;52.362;6.588;2023-11-21T09:45:46;45.98;36.81;62.71;;
76767;Laerm;65707;52.362;6.588;2023-11-21T09:48:15;50.20;38.40;66.19;;
76767;Laerm;65707;52.362;6.588;2023-11-21T09:50:43;61.52;40.62;80.32;;
76767;Laerm;65707;52.362;6.588;2023-11-21T09:53:18;57.89;38.39;77.95;;
76767;Laerm;65707;52.362;6.588;2023-11-21T09:55:47;57.17;40.25;77.39;;
76767;Laerm;65707;52.362;6.588;2023-11-21T09:58:16;53.57;40.86;74.06;;
76767;Laerm;65707;52.362;6.588;2023-11-21T10:00:44;58.42;40.57;71.25;;
76767;Laerm;65707;52.362;6.588;2023-11-21T10:03:12;49.96;41.33;68.29;;
76767;Laerm;65707;52.362;6.588;2023-11-21T10:05:42;57.45;40.11;79.13;;
76767;Laerm;65707;52.362;6.588;2023-11-21T10:08:12;47.97;38.83;70.55;;
76767;Laerm;65707;52.362;6.588;2023-11-21T10:10:43;58.99;39.76;79.61;;
76767;Laerm;65707;52.362;6.588;2023-11-21T10:13:12;55.27;41.31;71.09;;
76767;Laerm;65707;52.362;6.588;2023-11-21T10:15:43;61.51;40.48;79.29;;
76767;Laerm;65707;52.362;6.588;2023-11-21T10:18:15;55.49;38.26;78.29;;
76767;Laerm;65707;52.362;6.588;2023-11-21T10:20:45;57.46;39.74;80.00;;
76767;Laerm;65707;52.362;6.588;2023-11-21T10:23:18;50.39;39.92;71.11;;
76767;Laerm;65707;52.362;6.588;2023-11-21T10:25:46;63.29;39.67;78.98;;
76767;Laerm;65707;52.362;6.588;2023-11-21T10:28:14;48.23;39.96;63.02;;
76767;Laerm;65707;52.362;6.588;2023-11-21T10:30:41;57.26;40.28;72.12;;
76767;Laerm;65707;52.362;6.588;2023-11-21T10:33:08;47.19;38.72;61.07;;
76767;Laerm;65707;52.362;6.588;2023-11-21T10:35:46;47.91;38.99;62.32;;
76767;Laerm;65707;52.362;6.588;2023-11-21T10:38:16;57.03;41.85;71.42;;
76767;Laerm;65707;52.362;6.588;2023-11-21T10:40:44;58.65;40.41;78.88;;
76767;Laerm;65707;52.362;6.588;2023-11-21T10:43:12;51.32;39.69;67.69;;
76767;Laerm;65707;52.362;6.588;2023-11-21T10:45:41;60.55;38.19;79.64;;
76767;Laerm;65707;52.362;6.588;2023-11-21T10:48:09;54.29;38.71;72.81;;
76767;Laerm;65707;52.362;6.588;2023-11-21T10:50:37;58.33;37.56;81.24;;
76767;Laerm;65707;52.362;6.588;2023-11-21T10:53:05;55.13;38.40;74.00;;
76767;Laerm;65707;52.362;6.588;2023-11-21T10:55:34;54.92;37.65;72.39;;
76767;Laerm;65707;52.362;6.588;2023-11-21T10:58:02;58.63;40.99;73.85;;
76767;Laerm;65707;52.362;6.588;2023-11-21T11:00:32;56.60;39.89;70.04;;
76767;Laerm;65707;52.362;6.588;2023-11-21T11:03:00;55.50;40.73;71.00;;
76767;Laerm;65707;52.362;6.588;2023-11-21T11:05:30;54.21;38.39;64.42;;
76767;Laerm;65707;52.362;6.588;2023-11-21T11:08:00;46.48;37.70;60.73;;
76767;Laerm;65707;52.362;6.588;2023-11-21T11:10:31;60.12;38.69;78.78;;
76767;Laerm;65707;52.362;6.588;2023-11-21T11:12:59;57.39;40.36;75.45;;
76767;Laerm;65707;52.362;6.588;2023-11-21T11:15:27;47.64;40.01;62.48;;
76767;Laerm;65707;52.362;6.588;2023-11-21T11:17:55;47.58;39.52;60.02;;
76767;Laerm;65707;52.362;6.588;2023-11-21T11:20:25;59.89;40.67;79.40;;
76767;Laerm;65707;52.362;6.588;2023-11-21T11:23:20;57.28;38.82;74.68;;
76767;Laerm;65707;52.362;6.588;2023-11-21T11:26:10;54.26;40.07;72.99;;
76767;Laerm;65707;52.362;6.588;2023-11-21T11:28:47;46.67;38.14;62.61;;
76767;Laerm;65707;52.362;6.588;2023-11-21T11:31:37;56.96;40.15;69.15;;
76767;Laerm;65707;52.362;6.588;2023-11-21T11:34:22;47.21;38.56;64.88;;
76767;Laerm;65707;52.362;6.588;2023-11-21T11:37:00;47.26;38.21;62.44;;
76767;Laerm;65707;52.362;6.588;2023-11-21T11:39:29;55.45;40.45;73.40;;
76767;Laerm;65707;52.362;6.588;2023-11-21T11:42:05;58.18;39.46;77.03;;
76767;Laerm;65707;52.362;6.588;2023-11-21T11:44:51;46.19;40.00;58.94;;
76767;Laerm;65707;52.362;6.588;2023-11-21T11:47:24;46.37;38.39;60.25;;
76767;Laerm;65707;52.362;6.588;2023-11-21T11:50:08;60.24;40.52;79.80;;
76767;Laerm;65707;52.362;6.588;2023-11-21T11:52:40;46.21;37.25;62.13;;
76767;Laerm;65707;52.362;6.588;2023-11-21T11:55:11;51.49;37.08;72.39;;
76767;Laerm;65707;52.362;6.588;2023-11-21T11:57:42;45.03;39.04;60.40;;
76767;Laerm;65707;52.362;6.588;2023-11-21T12:00:13;54.62;39.00;69.76;;
76767;Laerm;65707;52.362;6.588;2023-11-21T12:02:46;54.85;38.99;68.82;;
76767;Laerm;65707;52.362;6.588;2023-11-21T12:05:15;43.93;36.90;54.66;;
76767;Laerm;65707;52.362;6.588;2023-11-21T12:07:45;46.53;37.27;61.03;;
76767;Laerm;65707;52.362;6.588;2023-11-21T12:10:14;46.90;37.29;58.06;;
76767;Laerm;65707;52.362;6.588;2023-11-21T12:12:49;53.43;39.69;74.23;;
76767;Laerm;65707;52.362;6.588;2023-11-21T12:15:19;66.27;39.33;81.53;;
76767;Laerm;65707;52.362;6.588;2023-11-21T12:17:47;46.22;39.84;56.07;;
76767;Laerm;65707;52.362;6.588;2023-11-21T12:20:18;59.73;39.62;81.08;;
76767;Laerm;65707;52.362;6.588;2023-11-21T12:22:47;45.94;39.42;56.20;;
76767;Laerm;65707;52.362;6.588;2023-11-21T12:25:15;55.09;39.27;74.85;;
76767;Laerm;65707;52.362;6.588;2023-11-21T12:27:45;47.07;39.21;57.42;;
76767;Laerm;65707;52.362;6.588;2023-11-21T12:30:14;55.25;40.21;72.01;;
76767;Laerm;65707;52.362;6.588;2023-11-21T12:32:42;54.67;39.63;71.21;;
76767;Laerm;65707;52.362;6.588;2023-11-21T12:35:10;47.32;40.01;62.57;;
76767;Laerm;65707;52.362;6.588;2023-11-21T12:37:37;47.83;39.08;70.88;;
76767;Laerm;65707;52.362;6.588;2023-11-21T12:40:07;61.58;39.85;79.86;;
76767;Laerm;65707;52.362;6.588;2023-11-21T12:42:37;47.11;39.81;65.35;;
76767;Laerm;65707;52.362;6.588;2023-11-21T12:45:08;45.21;37.71;57.37;;
76767;Laerm;65707;52.362;6.588;2023-11-21T12:47:42;51.42;39.75;66.65;;
76767;Laerm;65707;52.362;6.588;2023-11-21T12:50:14;61.32;43.38;71.68;;
76767;Laerm;65707;52.362;6.588;2023-11-21T12:52:47;47.39;39.70;61.18;;
76767;Laerm;65707;52.362;6.588;2023-11-21T12:55:17;62.69;40.39;79.58;;
76767;Laerm;65707;52.362;6.588;2023-11-21T12:57:45;56.97;42.14;75.51;;
76767;Laerm;65707;52.362;6.588;2023-11-21T13:00:16;55.42;40.79;68.72;;
76767;Laerm;65707;52.362;6.588;2023-11-21T13:02:55;55.04;39.85;71.64;;
76767;Laerm;65707;52.362;6.588;2023-11-21T13:05:28;46.47;40.22;58.56;;
76767;Laerm;65707;52.362;6.588;2023-11-21T13:07:58;44.88;38.42;52.39;;
76767;Laerm;65707;52.362;6.588;2023-11-21T13:10:31;62.61;41.85;78.28;;
76767;Laerm;65707;52.362;6.588;2023-11-21T13:12:58;47.64;41.67;59.01;;
76767;Laerm;65707;52.362;6.588;2023-11-21T13:15:27;45.28;39.13;58.45;;
76767;Laerm;65707;52.362;6.588;2023-11-21T13:17:58;47.86;40.27;57.94;;
76767;Laerm;65707;52.362;6.588;2023-11-21T13:20:25;45.94;38.31;60.91;;
76767;Laerm;65707;52.362;6.588;2023-11-21T13:22:54;58.51;39.93;79.42;;
76767;Laerm;65707;52.362;6.588;2023-11-21T13:25:23;48.05;41.13;66.25;;
76767;Laerm;65707;52.362;6.588;2023-11-21T13:27:53;45.89;40.50;54.01;;
76767;Laerm;65707;52.362;6.588;2023-11-21T13:30:20;55.46;40.11;70.63;;
76767;Laerm;65707;52.362;6.588;2023-11-21T13:32:52;55.08;40.07;69.28;;
76767;Laerm;65707;52.362;6.588;2023-11-21T13:35:24;48.20;39.19;60.91;;
76767;Laerm;65707;52.362;6.588;2023-11-21T13:38:04;56.04;41.71;73.70;;
76767;Laerm;65707;52.362;6.588;2023-11-21T13:40:33;62.85;41.12;79.79;;
76767;Laerm;65707;52.362;6.588;2023-11-21T13:43:03;47.41;39.82;55.98;;
76767;Laerm;65707;52.362;6.588;2023-11-21T13:45:30;46.61;40.12;56.90;;
76767;Laerm;65707;52.362;6.588;2023-11-21T13:47:57;46.37;40.02;52.46;;
76767;Laerm;65707;52.362;6.588;2023-11-21T13:50:28;61.91;41.03;79.50;;
76767;Laerm;65707;52.362;6.588;2023-11-21T13:52:58;47.61;39.37;57.13;;
76767;Laerm;65707;52.362;6.588;2023-11-21T13:55:28;52.80;40.91;70.46;;
76767;Laerm;65707;52.362;6.588;2023-11-21T13:57:55;59.37;41.93;74.76;;
76767;Laerm;65707;52.362;6.588;2023-11-21T14:00:22;57.96;43.67;73.30;;
76767;Laerm;65707;52.362;6.588;2023-11-21T14:03:06;55.01;41.74;70.76;;
76767;Laerm;65707;52.362;6.588;2023-11-21T14:05:43;48.94;41.57;61.47;;